createdAt,value
2017-07-31T00:00:32.676Z,98541.19
2017-07-31T00:03:01.974Z,98540.97
2017-07-31T00:05:31.438Z,98544.89
2017-07-31T00:08:00.868Z,98555.38
2017-07-31T00:10:30.311Z,98559.38
2017-07-31T00:12:59.880Z,98566.84
2017-07-31T00:15:29.320Z,98584.64
2017-07-31T00:17:58.812Z,98611.89
2017-07-31T00:20:28.295Z,98605.25
2017-07-31T00:22:57.805Z,98604.48
2017-07-31T00:25:27.245Z,98589.29
2017-07-31T00:27:56.750Z,98588.36
2017-07-31T00:30:26.200Z,98592.16
2017-07-31T00:32:55.485Z,98591.66
2017-07-31T00:35:24.961Z,98592.31
2017-07-31T00:37:55.119Z,98593.89
2017-07-31T00:40:24.573Z,98591.48
2017-07-31T00:42:54.035Z,98592.39
2017-07-31T00:45:23.603Z,98611.47
2017-07-31T00:47:53.049Z,98615.61
2017-07-31T00:50:22.599Z,98603.36
2017-07-31T00:52:52.034Z,98604.50
2017-07-31T00:55:22.403Z,98598.63
2017-07-31T00:57:51.864Z,98589.45
2017-07-31T01:00:21.341Z,98581.20
2017-07-31T01:02:50.812Z,98574.16
2017-07-31T01:05:20.293Z,98564.86
2017-07-31T01:07:49.738Z,98566.65
2017-07-31T01:10:19.259Z,98566.94
2017-07-31T01:12:48.689Z,98573.16
2017-07-31T01:15:18.177Z,98576.75
2017-07-31T01:17:47.487Z,98574.53
2017-07-31T01:20:16.980Z,98577.39
2017-07-31T01:22:46.408Z,98573.84
2017-07-31T01:25:15.891Z,98557.91
2017-07-31T01:27:45.332Z,98568.19
2017-07-31T01:30:14.827Z,98559.58
2017-07-31T01:32:44.383Z,98566.93
2017-07-31T01:35:13.888Z,98556.48
2017-07-31T01:37:43.332Z,98549.68
2017-07-31T01:40:12.847Z,98548.61
2017-07-31T01:42:42.284Z,98553.12
2017-07-31T01:45:11.795Z,98547.28
2017-07-31T01:47:41.226Z,98544.73
2017-07-31T01:50:10.709Z,98552.53
2017-07-31T01:52:40.156Z,98551.13
2017-07-31T01:55:09.621Z,98557.56
2017-07-31T01:57:39.064Z,98569.30
2017-07-31T02:00:08.591Z,98583.53
2017-07-31T02:02:37.868Z,98594.36
2017-07-31T02:05:07.363Z,98607.47
2017-07-31T02:07:36.629Z,98605.95
2017-07-31T02:10:06.133Z,98600.27
2017-07-31T02:12:35.564Z,98593.72
2017-07-31T02:15:04.886Z,98603.28
2017-07-31T02:17:34.337Z,98618.30
2017-07-31T02:20:03.837Z,98635.53
2017-07-31T02:22:33.305Z,98652.69
2017-07-31T02:25:02.822Z,98690.54
2017-07-31T02:27:32.260Z,98731.62
2017-07-31T02:30:01.764Z,98740.00
2017-07-31T02:32:31.208Z,98740.61
2017-07-31T02:35:00.648Z,98721.98
2017-07-31T02:37:30.107Z,98705.63
2017-07-31T02:39:59.574Z,98709.99
2017-07-31T02:42:29.010Z,98706.25
2017-07-31T02:44:58.456Z,98692.27
2017-07-31T02:47:27.903Z,98692.53
2017-07-31T02:49:57.349Z,98696.05
2017-07-31T02:52:26.790Z,98691.66
2017-07-31T02:54:56.253Z,98674.95
2017-07-31T02:57:25.688Z,98664.12
2017-07-31T02:59:55.128Z,98664.23
2017-07-31T03:02:24.602Z,98672.86
2017-07-31T03:04:54.062Z,98676.17
2017-07-31T03:07:23.496Z,98677.56
2017-07-31T03:09:52.964Z,98677.48
2017-07-31T03:12:22.419Z,98682.97
2017-07-31T03:14:52.636Z,98694.41
2017-07-31T03:17:22.089Z,98699.94
2017-07-31T03:19:51.527Z,98698.37
2017-07-31T03:22:20.966Z,98691.74
2017-07-31T03:24:50.410Z,98689.33
2017-07-31T03:27:19.892Z,98698.26
2017-07-31T03:29:49.357Z,98692.88
2017-07-31T03:32:18.795Z,98685.56
2017-07-31T03:34:48.241Z,98687.66
2017-07-31T03:37:17.799Z,98695.04
2017-07-31T03:39:47.228Z,98702.81
2017-07-31T03:42:16.815Z,98714.42
2017-07-31T03:44:46.258Z,98727.92
2017-07-31T03:47:15.710Z,98730.59
2017-07-31T03:49:45.157Z,98739.95
2017-07-31T03:52:14.612Z,98756.41
2017-07-31T03:54:44.091Z,98746.97
2017-07-31T03:57:13.517Z,98735.92
2017-07-31T03:59:42.988Z,98732.15
2017-07-31T04:02:12.443Z,98741.86
2017-07-31T04:04:41.881Z,98741.64
2017-07-31T04:07:11.352Z,98743.01
2017-07-31T04:09:40.796Z,98745.33
2017-07-31T04:12:10.224Z,98734.00
2017-07-31T04:14:39.674Z,98741.33
2017-07-31T04:17:09.131Z,98734.07
2017-07-31T04:19:38.575Z,98731.55
2017-07-31T04:22:08.026Z,98728.06
2017-07-31T04:24:37.464Z,98726.44
2017-07-31T04:27:06.916Z,98724.23
2017-07-31T04:29:36.401Z,98735.52
2017-07-31T04:32:05.844Z,98734.88
2017-07-31T04:34:35.298Z,98742.58
2017-07-31T04:37:04.733Z,98741.48
2017-07-31T04:39:34.193Z,98737.28
2017-07-31T04:42:03.624Z,98732.45
2017-07-31T04:44:33.071Z,98737.92
2017-07-31T04:47:02.526Z,98735.19
2017-07-31T04:49:31.989Z,98735.20
2017-07-31T04:52:01.443Z,98728.28
2017-07-31T04:54:30.896Z,98745.44
2017-07-31T04:57:00.351Z,98757.86
2017-07-31T04:59:29.997Z,98763.86
2017-07-31T05:01:59.433Z,98749.67
2017-07-31T05:04:28.897Z,98742.08
2017-07-31T05:06:58.353Z,98760.34
2017-07-31T05:09:27.797Z,98762.41
2017-07-31T05:11:57.253Z,98764.95
2017-07-31T05:14:26.708Z,98761.33
2017-07-31T05:16:56.160Z,98767.05
2017-07-31T05:19:25.584Z,98766.36
2017-07-31T05:21:55.062Z,98761.41
2017-07-31T05:24:24.507Z,98758.36
2017-07-31T05:26:53.949Z,98758.18
2017-07-31T05:29:23.417Z,98764.78
2017-07-31T05:31:52.840Z,98775.94
2017-07-31T05:34:22.283Z,98787.10
2017-07-31T05:36:51.733Z,98778.23
2017-07-31T05:39:21.179Z,98782.95
2017-07-31T05:41:50.614Z,98787.56
2017-07-31T05:44:20.080Z,98786.53
2017-07-31T05:46:49.512Z,98782.59
2017-07-31T05:49:18.953Z,98774.53
2017-07-31T05:51:48.398Z,98773.97
2017-07-31T05:54:17.836Z,98772.66
2017-07-31T05:56:47.288Z,98764.33
2017-07-31T05:59:16.736Z,98760.70
2017-07-31T06:01:46.196Z,98767.02
2017-07-31T06:04:15.623Z,98761.51
2017-07-31T06:06:45.101Z,98770.05
2017-07-31T06:09:14.543Z,98760.33
2017-07-31T06:11:43.998Z,98761.02
2017-07-31T06:14:13.445Z,98767.63
2017-07-31T06:16:42.708Z,98776.58
2017-07-31T06:19:12.154Z,98779.69
2017-07-31T06:21:41.597Z,98779.91
2017-07-31T06:24:11.048Z,98786.00
2017-07-31T06:26:40.530Z,98788.16
2017-07-31T06:29:09.953Z,98794.10
2017-07-31T06:31:39.240Z,98799.84
2017-07-31T06:34:08.691Z,98801.20
2017-07-31T06:36:38.127Z,98807.13
2017-07-31T06:39:07.577Z,98811.37
2017-07-31T06:41:37.016Z,98803.11
2017-07-31T06:44:06.476Z,98806.36
2017-07-31T06:46:35.919Z,98801.75
2017-07-31T06:49:05.352Z,98807.61
2017-07-31T06:51:34.800Z,98796.82
2017-07-31T06:54:04.240Z,98803.95
2017-07-31T06:56:35.421Z,98807.50
2017-07-31T06:59:04.906Z,98812.34
2017-07-31T07:01:34.332Z,98801.48
2017-07-31T07:04:03.796Z,98806.27
2017-07-31T07:06:33.269Z,98800.44
2017-07-31T07:09:02.704Z,98803.69
2017-07-31T07:11:32.156Z,98799.27
2017-07-31T07:14:01.610Z,98793.00
2017-07-31T07:16:31.064Z,98789.34
2017-07-31T07:19:00.504Z,98792.53
2017-07-31T07:21:29.755Z,98790.44
2017-07-31T07:23:59.202Z,98790.91
2017-07-31T07:26:28.648Z,98790.05
2017-07-31T07:28:58.131Z,98789.52
2017-07-31T07:31:27.634Z,98788.42
2017-07-31T07:33:57.055Z,98791.99
2017-07-31T07:36:26.511Z,98796.14
2017-07-31T07:38:56.636Z,98797.78
2017-07-31T07:41:26.088Z,98795.26
2017-07-31T07:43:55.524Z,98799.73
2017-07-31T07:46:24.972Z,98796.52
2017-07-31T07:48:55.098Z,98800.19
2017-07-31T07:51:24.541Z,98800.30
2017-07-31T07:53:53.976Z,98795.80
2017-07-31T07:56:23.421Z,98790.92
2017-07-31T07:58:52.885Z,98790.41
2017-07-31T08:01:22.338Z,98791.05
2017-07-31T08:03:51.786Z,98787.44
2017-07-31T08:06:21.225Z,98792.89
2017-07-31T08:08:50.666Z,98792.27
2017-07-31T08:11:20.123Z,98788.64
2017-07-31T08:13:49.560Z,98789.06
2017-07-31T08:16:19.007Z,98791.01
2017-07-31T08:18:48.447Z,98788.77
2017-07-31T08:21:17.893Z,98795.22
2017-07-31T08:23:47.337Z,98798.84
2017-07-31T08:26:16.857Z,98792.34
2017-07-31T08:28:46.283Z,98796.98
2017-07-31T08:31:15.723Z,98796.58
2017-07-31T08:33:45.192Z,98798.42
2017-07-31T08:36:14.635Z,98797.31
2017-07-31T08:38:44.093Z,98807.81
2017-07-31T08:41:13.542Z,98811.48
2017-07-31T08:43:43.674Z,98805.63
2017-07-31T08:46:13.124Z,98806.99
2017-07-31T08:48:42.570Z,98799.27
2017-07-31T08:51:12.022Z,98805.34
2017-07-31T08:53:41.456Z,98805.19
2017-07-31T08:56:10.898Z,98809.55
2017-07-31T08:58:40.359Z,98797.69
2017-07-31T09:01:09.792Z,98793.03
2017-07-31T09:03:39.255Z,98790.71
2017-07-31T09:06:08.695Z,98792.73
2017-07-31T09:08:38.133Z,98786.66
2017-07-31T09:11:07.651Z,98783.66
2017-07-31T09:13:37.076Z,98783.40
2017-07-31T09:16:06.522Z,98780.63
2017-07-31T09:18:35.969Z,98781.22
2017-07-31T09:21:05.408Z,98778.59
2017-07-31T09:23:34.880Z,98777.14
2017-07-31T09:26:04.329Z,98780.16
2017-07-31T09:28:33.884Z,98779.52
2017-07-31T09:31:03.344Z,98785.55
2017-07-31T09:33:32.783Z,98779.56
2017-07-31T09:36:02.233Z,98773.94
2017-07-31T09:38:31.673Z,98769.66
2017-07-31T09:41:01.112Z,98776.16
2017-07-31T09:43:30.575Z,98772.72
2017-07-31T09:46:00.011Z,98777.04
2017-07-31T09:48:29.449Z,98780.05
2017-07-31T09:50:58.903Z,98778.07
2017-07-31T09:53:28.365Z,98781.83
2017-07-31T09:55:57.624Z,98782.98
2017-07-31T09:58:27.058Z,98785.23
2017-07-31T10:00:56.511Z,98780.53
2017-07-31T10:03:26.461Z,98786.47
2017-07-31T10:05:55.936Z,98780.24
2017-07-31T10:08:25.372Z,98782.05
2017-07-31T10:10:54.816Z,98779.91
2017-07-31T10:13:24.273Z,98785.34
2017-07-31T10:15:53.753Z,98781.00
2017-07-31T10:18:23.176Z,98786.53
2017-07-31T10:20:52.620Z,98784.44
2017-07-31T10:23:22.075Z,98783.13
2017-07-31T10:25:51.519Z,98783.30
2017-07-31T10:28:20.973Z,98785.78
2017-07-31T10:30:50.414Z,98782.55
2017-07-31T10:33:19.875Z,98786.48
2017-07-31T10:35:49.337Z,98785.08
2017-07-31T10:38:18.784Z,98780.47
2017-07-31T10:40:48.231Z,98774.92
2017-07-31T10:43:17.677Z,98781.28
2017-07-31T10:45:47.164Z,98774.58
2017-07-31T10:48:16.604Z,98771.52
2017-07-31T10:50:46.060Z,98773.41
2017-07-31T10:53:15.526Z,98768.64
2017-07-31T10:55:44.973Z,98766.02
2017-07-31T10:58:14.463Z,98767.36
2017-07-31T11:00:43.886Z,98765.73
2017-07-31T11:03:13.348Z,98766.65
2017-07-31T11:05:42.796Z,98770.62
2017-07-31T11:08:12.257Z,98765.66
2017-07-31T11:10:41.688Z,98755.33
2017-07-31T11:13:11.141Z,98757.77
2017-07-31T11:15:40.626Z,98749.34
2017-07-31T11:18:10.069Z,98749.73
2017-07-31T11:20:39.532Z,98747.20
2017-07-31T11:23:08.983Z,98748.05
2017-07-31T11:25:38.439Z,98744.66
2017-07-31T11:28:07.869Z,98742.05
2017-07-31T11:30:37.341Z,98742.08
2017-07-31T11:33:06.787Z,98740.10
2017-07-31T11:35:36.251Z,98737.29
2017-07-31T11:38:05.705Z,98734.69
2017-07-31T11:40:35.154Z,98731.50
2017-07-31T11:43:04.596Z,98727.70
2017-07-31T11:45:34.038Z,98727.87
2017-07-31T11:48:03.494Z,98723.48
2017-07-31T11:50:32.934Z,98725.67
2017-07-31T11:53:02.373Z,98719.09
2017-07-31T11:55:31.828Z,98721.87
2017-07-31T11:58:01.276Z,98713.10
2017-07-31T12:00:30.715Z,98708.67
2017-07-31T12:02:59.988Z,98713.72
2017-07-31T12:05:29.461Z,98701.83
2017-07-31T12:07:58.957Z,98700.74
2017-07-31T12:10:28.405Z,98695.16
2017-07-31T12:12:57.865Z,98701.18
2017-07-31T12:15:27.294Z,98701.06
2017-07-31T12:17:56.733Z,98698.57
2017-07-31T12:20:26.195Z,98701.77
2017-07-31T12:22:55.690Z,98704.60
2017-07-31T12:25:25.124Z,98699.45
2017-07-31T12:27:54.585Z,98696.43
2017-07-31T12:30:24.045Z,98697.08
2017-07-31T12:32:53.353Z,98689.97
2017-07-31T12:35:22.849Z,98695.08
2017-07-31T12:37:52.302Z,98702.66
2017-07-31T12:40:21.922Z,98695.88
2017-07-31T12:42:51.349Z,98695.25
2017-07-31T12:45:20.863Z,98691.84
2017-07-31T12:47:50.281Z,98692.05
2017-07-31T12:50:19.809Z,98693.42
2017-07-31T12:52:49.229Z,98695.86
2017-07-31T12:55:18.711Z,98696.04
2017-07-31T12:57:48.249Z,98696.02
2017-07-31T13:00:17.711Z,98695.45
2017-07-31T13:02:47.173Z,98689.48
2017-07-31T13:05:16.667Z,98691.50
2017-07-31T13:07:46.121Z,98684.00
2017-07-31T13:10:15.621Z,98685.50
2017-07-31T13:12:45.075Z,98679.91
2017-07-31T13:15:14.554Z,98687.51
2017-07-31T13:17:43.990Z,98673.81
2017-07-31T13:20:13.484Z,98690.86
2017-07-31T13:22:42.920Z,98684.02
2017-07-31T13:25:12.241Z,98687.17
2017-07-31T13:27:41.678Z,98688.94
2017-07-31T13:30:11.176Z,98688.38
2017-07-31T13:32:40.610Z,98688.81
2017-07-31T13:35:10.105Z,98679.59
2017-07-31T13:37:39.554Z,98681.11
2017-07-31T13:40:09.026Z,98677.30
2017-07-31T13:42:38.497Z,98679.55
2017-07-31T13:45:07.974Z,98677.84
2017-07-31T13:47:37.433Z,98679.92
2017-07-31T13:50:06.926Z,98673.70
2017-07-31T13:52:36.349Z,98671.30
2017-07-31T13:55:05.871Z,98665.73
2017-07-31T13:57:35.317Z,98657.48
2017-07-31T14:00:04.825Z,98655.27
2017-07-31T14:02:34.176Z,98647.72
2017-07-31T14:05:03.745Z,98655.58
2017-07-31T14:07:33.176Z,98649.83
2017-07-31T14:10:02.680Z,98651.05
2017-07-31T14:12:32.127Z,98656.14
2017-07-31T14:15:01.635Z,98649.16
2017-07-31T14:17:31.072Z,98646.22
2017-07-31T14:20:00.536Z,98639.22
2017-07-31T14:22:30.531Z,98635.78
2017-07-31T14:24:59.978Z,98638.01
2017-07-31T14:27:29.425Z,98637.16
2017-07-31T14:29:58.871Z,98628.98
2017-07-31T14:32:28.317Z,98627.50
2017-07-31T14:34:57.757Z,98627.82
2017-07-31T14:37:27.197Z,98621.02
2017-07-31T14:39:56.664Z,98618.05
2017-07-31T14:42:26.077Z,98617.27
2017-07-31T14:44:55.535Z,98614.46
2017-07-31T14:47:24.995Z,98615.78
2017-07-31T14:49:54.442Z,98610.31
2017-07-31T14:52:23.901Z,98615.03
2017-07-31T14:54:53.349Z,98614.70
2017-07-31T14:57:22.790Z,98614.86
2017-07-31T14:59:52.259Z,98610.97
2017-07-31T15:02:21.693Z,98600.34
2017-07-31T15:04:51.132Z,98590.25
2017-07-31T15:07:20.569Z,98600.91
2017-07-31T15:09:50.017Z,98601.59
2017-07-31T15:12:19.467Z,98598.99
2017-07-31T15:14:48.912Z,98591.00
2017-07-31T15:17:18.400Z,98594.86
2017-07-31T15:19:48.209Z,98586.44
2017-07-31T15:22:17.638Z,98585.64
2017-07-31T15:24:47.112Z,98585.11
2017-07-31T15:27:16.567Z,98584.09
2017-07-31T15:29:46.014Z,98580.25
2017-07-31T15:32:15.541Z,98578.86
2017-07-31T15:34:44.973Z,98572.66
2017-07-31T15:37:14.481Z,98571.81
2017-07-31T15:39:43.916Z,98561.49
2017-07-31T15:42:13.404Z,98567.23
2017-07-31T15:44:42.849Z,98564.56
2017-07-31T15:47:12.296Z,98567.56
2017-07-31T15:49:41.773Z,98556.02
2017-07-31T15:52:11.002Z,98564.30
2017-07-31T15:54:40.454Z,98559.39
2017-07-31T15:57:09.899Z,98555.30
2017-07-31T15:59:39.337Z,98550.89
2017-07-31T16:02:08.819Z,98547.19
2017-07-31T16:04:38.262Z,98546.09
2017-07-31T16:07:07.688Z,98541.69
2017-07-31T16:09:37.136Z,98539.89
2017-07-31T16:12:06.590Z,98537.84
2017-07-31T16:14:36.026Z,98541.27
2017-07-31T16:17:05.470Z,98534.59
2017-07-31T16:19:34.923Z,98533.13
2017-07-31T16:22:04.352Z,98534.22
2017-07-31T16:24:33.806Z,98534.34
2017-07-31T16:27:03.259Z,98526.06
2017-07-31T16:29:32.701Z,98529.30
2017-07-31T16:32:02.154Z,98522.84
2017-07-31T16:34:31.605Z,98525.45
2017-07-31T16:37:00.446Z,98522.63
2017-07-31T16:39:29.148Z,98522.61
2017-07-31T16:42:01.966Z,98524.36
2017-07-31T16:44:47.340Z,98528.27
2017-07-31T16:47:27.566Z,98528.05
2017-07-31T16:49:56.511Z,98526.84
2017-07-31T16:52:25.489Z,98524.30
2017-07-31T16:54:55.065Z,98519.31
2017-07-31T17:00:02.214Z,98514.22
2017-07-31T17:02:31.394Z,98517.25
2017-07-31T17:05:00.921Z,98514.42
2017-07-31T17:07:30.377Z,98514.33
2017-07-31T17:09:59.825Z,98515.37
2017-07-31T17:12:29.273Z,98524.61
2017-07-31T17:14:58.777Z,98514.61
2017-07-31T17:17:28.218Z,98524.63
2017-07-31T17:19:57.689Z,98520.59
2017-07-31T17:22:27.176Z,98520.25
2017-07-31T17:24:56.640Z,98515.27
2017-07-31T17:27:26.101Z,98523.98
2017-07-31T17:29:55.516Z,98527.84
2017-07-31T17:32:24.987Z,98527.48
2017-07-31T17:34:54.433Z,98535.94
2017-07-31T17:37:23.945Z,98533.20
2017-07-31T17:39:53.408Z,98540.73
2017-07-31T17:42:22.665Z,98540.95
2017-07-31T17:44:52.113Z,98541.16
2017-07-31T17:47:21.562Z,98540.09
2017-07-31T17:49:51.029Z,98548.96
2017-07-31T17:52:20.681Z,98555.43
2017-07-31T17:54:50.140Z,98556.31
2017-07-31T17:57:19.594Z,98559.57
2017-07-31T17:59:48.881Z,98563.47
2017-07-31T18:02:18.331Z,98559.45
2017-07-31T18:04:47.793Z,98559.95
2017-07-31T18:07:17.228Z,98555.15
2017-07-31T18:09:46.704Z,98561.00
2017-07-31T18:12:16.158Z,98568.19
2017-07-31T18:14:45.620Z,98574.05
2017-07-31T18:17:15.065Z,98572.69
2017-07-31T18:19:44.549Z,98575.01
2017-07-31T18:22:13.990Z,98573.14
2017-07-31T18:24:43.448Z,98586.32
2017-07-31T18:27:12.893Z,98586.39
2017-07-31T18:29:42.348Z,98597.27
2017-07-31T18:32:11.636Z,98595.45
2017-07-31T18:34:41.107Z,98603.50
2017-07-31T18:37:10.562Z,98604.16
2017-07-31T18:39:40.001Z,98603.74
2017-07-31T18:42:09.469Z,98607.58
2017-07-31T18:44:38.918Z,98611.11
2017-07-31T18:47:08.392Z,98612.42
2017-07-31T18:49:37.860Z,98607.27
2017-07-31T18:52:07.330Z,98606.51
2017-07-31T18:54:36.805Z,98610.53
2017-07-31T18:57:06.338Z,98613.86
2017-07-31T18:59:35.776Z,98617.31
2017-07-31T19:02:05.241Z,98619.48
2017-07-31T19:04:34.708Z,98616.63
2017-07-31T19:07:04.152Z,98617.73
2017-07-31T19:09:33.652Z,98618.98
2017-07-31T19:12:02.889Z,98622.82
2017-07-31T19:14:32.372Z,98622.27
2017-07-31T19:17:01.829Z,98624.32
2017-07-31T19:19:31.274Z,98626.21
2017-07-31T19:22:00.740Z,98626.11
2017-07-31T19:24:30.209Z,98633.70
2017-07-31T19:26:59.636Z,98636.31
2017-07-31T19:29:29.077Z,98640.31
2017-07-31T19:31:58.669Z,98644.46
2017-07-31T19:34:28.135Z,98642.90
2017-07-31T19:36:57.597Z,98647.97
2017-07-31T19:39:26.880Z,98639.19
2017-07-31T19:41:56.304Z,98641.92
2017-07-31T19:44:25.764Z,98641.65
2017-07-31T19:46:55.218Z,98638.36
2017-07-31T19:49:24.662Z,98641.16
2017-07-31T19:51:54.107Z,98634.16
2017-07-31T19:54:23.378Z,98640.44
2017-07-31T19:56:52.856Z,98647.41
2017-07-31T19:59:22.291Z,98636.52
2017-07-31T20:01:51.764Z,98643.56
2017-07-31T20:04:21.251Z,98635.78
2017-07-31T20:06:51.378Z,98636.91
2017-07-31T20:09:20.827Z,98643.54
2017-07-31T20:11:50.272Z,98643.13
2017-07-31T20:14:19.754Z,98644.48
2017-07-31T20:16:49.197Z,98645.13
2017-07-31T20:19:18.685Z,98641.77
2017-07-31T20:21:48.117Z,98643.50
2017-07-31T20:24:17.554Z,98639.72
2017-07-31T20:26:47.010Z,98640.97
2017-07-31T20:29:16.525Z,98637.67
2017-07-31T20:31:45.980Z,98635.84
2017-07-31T20:34:15.424Z,98631.86
2017-07-31T20:36:44.878Z,98628.56
2017-07-31T20:39:14.333Z,98628.19
2017-07-31T20:41:43.806Z,98627.44
2017-07-31T20:44:13.255Z,98631.50
2017-07-31T20:46:42.826Z,98631.61
2017-07-31T20:49:12.275Z,98628.97
2017-07-31T20:51:41.719Z,98626.84
2017-07-31T20:54:11.166Z,98626.67
2017-07-31T20:56:40.616Z,98625.62
2017-07-31T20:59:10.046Z,98622.70
2017-07-31T21:01:39.489Z,98623.73
2017-07-31T21:04:08.949Z,98616.66
2017-07-31T21:06:38.429Z,98625.00
2017-07-31T21:09:07.961Z,98626.77
2017-07-31T21:11:37.399Z,98632.91
2017-07-31T21:14:06.854Z,98631.49
2017-07-31T21:16:36.283Z,98634.36
2017-07-31T21:19:05.563Z,98636.89
2017-07-31T21:21:35.008Z,98637.45
2017-07-31T21:24:04.489Z,98638.86
2017-07-31T21:26:33.910Z,98635.01
2017-07-31T21:29:03.356Z,98633.14
2017-07-31T21:31:32.813Z,98632.00
2017-07-31T21:34:02.269Z,98633.00
2017-07-31T21:36:31.714Z,98635.54
2017-07-31T21:39:01.161Z,98635.87
2017-07-31T21:41:30.602Z,98633.59
2017-07-31T21:44:00.084Z,98633.16
2017-07-31T21:46:29.516Z,98630.69
2017-07-31T21:48:58.968Z,98633.47
2017-07-31T21:51:28.422Z,98631.63
2017-07-31T21:53:57.872Z,98633.25
2017-07-31T21:56:27.333Z,98630.77
2017-07-31T21:58:56.791Z,98632.77
2017-07-31T22:01:26.237Z,98640.09
2017-07-31T22:03:55.703Z,98642.14
2017-07-31T22:06:25.146Z,98640.55
2017-07-31T22:08:54.670Z,98643.89
2017-07-31T22:11:24.097Z,98638.00
2017-07-31T22:13:53.564Z,98633.09
2017-07-31T22:16:28.551Z,98629.14
2017-07-31T22:18:57.998Z,98628.92
2017-07-31T22:21:32.800Z,98632.29
2017-07-31T22:24:02.009Z,98632.47
2017-07-31T22:26:31.453Z,98629.90
2017-07-31T22:29:00.920Z,98636.17
2017-07-31T22:31:31.158Z,98631.57
2017-07-31T22:34:00.614Z,98632.09
2017-07-31T22:36:30.060Z,98634.23
2017-07-31T22:38:59.541Z,98634.98
2017-07-31T22:41:28.997Z,98634.37
2017-07-31T22:43:58.421Z,98625.48
2017-07-31T22:46:27.895Z,98622.13
2017-07-31T22:48:57.353Z,98615.14
2017-07-31T22:51:26.804Z,98610.48
2017-07-31T22:53:56.250Z,98606.56
2017-07-31T22:56:25.695Z,98605.20
2017-07-31T22:58:55.137Z,98593.56
2017-07-31T23:01:24.622Z,98589.86
2017-07-31T23:03:53.915Z,98581.82
2017-07-31T23:06:23.354Z,98581.47
2017-07-31T23:08:52.825Z,98582.27
2017-07-31T23:11:22.273Z,98579.12
2017-07-31T23:13:51.728Z,98578.58
2017-07-31T23:16:21.191Z,98576.19
2017-07-31T23:18:50.768Z,98575.95
2017-07-31T23:21:20.229Z,98574.35
2017-07-31T23:23:49.668Z,98568.63
2017-07-31T23:26:19.116Z,98567.50
2017-07-31T23:28:48.587Z,98572.33
2017-07-31T23:31:18.048Z,98566.38
2017-07-31T23:33:47.478Z,98561.19
2017-07-31T23:36:16.928Z,98566.42
2017-07-31T23:38:46.396Z,98565.36
2017-07-31T23:41:15.829Z,98559.31
2017-07-31T23:43:45.315Z,98559.41
2017-07-31T23:46:14.753Z,98558.45
2017-07-31T23:48:44.260Z,98560.23
2017-07-31T23:51:13.710Z,98557.73
2017-07-31T23:53:43.167Z,98552.34
2017-07-31T23:56:12.608Z,98548.27
2017-07-31T23:58:42.087Z,98549.17
